sensor_id;sensor_type;location;lat;lon;timestamp;P1;durP1;ratioP1;P2;durP2;ratioP2
72649;SDS011;61467;50.674;4.618;2023-02-28T00:01:19;8.80;;;4.75;;
72649;SDS011;61467;50.674;4.618;2023-02-28T00:03:46;9.93;;;5.25;;
72649;SDS011;61467;50.674;4.618;2023-02-28T00:06:13;10.38;;;4.72;;
72649;SDS011;61467;50.674;4.618;2023-02-28T00:08:39;13.30;;;5.53;;
72649;SDS011;61467;50.674;4.618;2023-02-28T00:11:09;11.95;;;5.63;;
72649;SDS011;61467;50.674;4.618;2023-02-28T00:13:38;9.70;;;5.43;;
72649;SDS011;61467;50.674;4.618;2023-02-28T00:16:08;9.85;;;4.97;;
72649;SDS011;61467;50.674;4.618;2023-02-28T00:18:36;11.40;;;5.85;;
72649;SDS011;61467;50.674;4.618;2023-02-28T00:21:03;9.50;;;4.60;;
72649;SDS011;61467;50.674;4.618;2023-02-28T00:23:30;10.90;;;4.55;;
72649;SDS011;61467;50.674;4.618;2023-02-28T00:25:57;10.25;;;4.95;;
72649;SDS011;61467;50.674;4.618;2023-02-28T00:28:25;10.07;;;5.30;;
72649;SDS011;61467;50.674;4.618;2023-02-28T00:30:52;11.57;;;5.13;;
72649;SDS011;61467;50.674;4.618;2023-02-28T00:33:19;13.90;;;5.17;;
72649;SDS011;61467;50.674;4.618;2023-02-28T00:35:46;9.75;;;4.90;;
72649;SDS011;61467;50.674;4.618;2023-02-28T00:38:13;12.77;;;5.60;;
72649;SDS011;61467;50.674;4.618;2023-02-28T00:40:41;8.00;;;5.07;;
72649;SDS011;61467;50.674;4.618;2023-02-28T00:43:08;11.25;;;5.80;;
72649;SDS011;61467;50.674;4.618;2023-02-28T00:45:36;9.33;;;4.40;;
72649;SDS011;61467;50.674;4.618;2023-02-28T00:48:03;11.60;;;4.45;;
72649;SDS011;61467;50.674;4.618;2023-02-28T00:50:31;10.50;;;4.97;;
72649;SDS011;61467;50.674;4.618;2023-02-28T00:52:58;10.02;;;4.72;;
72649;SDS011;61467;50.674;4.618;2023-02-28T00:55:24;10.23;;;5.05;;
72649;SDS011;61467;50.674;4.618;2023-02-28T00:57:51;9.17;;;4.60;;
72649;SDS011;61467;50.674;4.618;2023-02-28T01:00:18;8.95;;;4.80;;
72649;SDS011;61467;50.674;4.618;2023-02-28T01:02:47;11.45;;;5.70;;
72649;SDS011;61467;50.674;4.618;2023-02-28T01:05:14;10.18;;;5.10;;
72649;SDS011;61467;50.674;4.618;2023-02-28T01:07:41;12.27;;;5.47;;
72649;SDS011;61467;50.674;4.618;2023-02-28T01:10:08;10.27;;;5.13;;
72649;SDS011;61467;50.674;4.618;2023-02-28T01:12:36;9.93;;;5.20;;
72649;SDS011;61467;50.674;4.618;2023-02-28T01:15:03;12.50;;;5.85;;
72649;SDS011;61467;50.674;4.618;2023-02-28T01:17:31;11.00;;;5.30;;
72649;SDS011;61467;50.674;4.618;2023-02-28T01:20:00;10.65;;;5.13;;
72649;SDS011;61467;50.674;4.618;2023-02-28T01:22:26;9.93;;;4.43;;
72649;SDS011;61467;50.674;4.618;2023-02-28T01:24:53;13.45;;;5.20;;
72649;SDS011;61467;50.674;4.618;2023-02-28T01:27:20;9.15;;;5.57;;
72649;SDS011;61467;50.674;4.618;2023-02-28T01:29:47;10.15;;;5.63;;
72649;SDS011;61467;50.674;4.618;2023-02-28T01:32:14;10.68;;;5.93;;
72649;SDS011;61467;50.674;4.618;2023-02-28T01:34:41;10.03;;;4.97;;
72649;SDS011;61467;50.674;4.618;2023-02-28T01:37:09;11.35;;;5.38;;
72649;SDS011;61467;50.674;4.618;2023-02-28T01:39:36;11.57;;;5.93;;
72649;SDS011;61467;50.674;4.618;2023-02-28T01:42:03;8.88;;;4.88;;
72649;SDS011;61467;50.674;4.618;2023-02-28T01:47:24;8.97;;;4.60;;
72649;SDS011;61467;50.674;4.618;2023-02-28T01:49:53;10.82;;;5.28;;
72649;SDS011;61467;50.674;4.618;2023-02-28T01:52:21;9.75;;;5.13;;
72649;SDS011;61467;50.674;4.618;2023-02-28T01:54:51;11.00;;;5.13;;
72649;SDS011;61467;50.674;4.618;2023-02-28T01:57:21;10.32;;;5.30;;
72649;SDS011;61467;50.674;4.618;2023-02-28T01:59:52;8.73;;;4.70;;
72649;SDS011;61467;50.674;4.618;2023-02-28T02:02:23;11.70;;;5.28;;
72649;SDS011;61467;50.674;4.618;2023-02-28T02:04:51;10.07;;;4.90;;
72649;SDS011;61467;50.674;4.618;2023-02-28T02:07:23;11.40;;;5.28;;
72649;SDS011;61467;50.674;4.618;2023-02-28T02:10:05;9.30;;;5.57;;
72649;SDS011;61467;50.674;4.618;2023-02-28T02:15:42;10.73;;;4.85;;
72649;SDS011;61467;50.674;4.618;2023-02-28T02:18:17;9.60;;;5.38;;
72649;SDS011;61467;50.674;4.618;2023-02-28T02:20:58;9.90;;;5.40;;
72649;SDS011;61467;50.674;4.618;2023-02-28T02:23:59;10.82;;;5.50;;
72649;SDS011;61467;50.674;4.618;2023-02-28T02:33:05;9.23;;;4.93;;
72649;SDS011;61467;50.674;4.618;2023-02-28T02:35:49;9.18;;;5.20;;
72649;SDS011;61467;50.674;4.618;2023-02-28T02:38:23;13.73;;;5.45;;
72649;SDS011;61467;50.674;4.618;2023-02-28T02:40:59;9.87;;;5.37;;
72649;SDS011;61467;50.674;4.618;2023-02-28T02:43:35;12.00;;;5.18;;
72649;SDS011;61467;50.674;4.618;2023-02-28T02:46:06;10.25;;;5.32;;
72649;SDS011;61467;50.674;4.618;2023-02-28T02:48:36;8.90;;;5.15;;
72649;SDS011;61467;50.674;4.618;2023-02-28T02:51:09;12.43;;;6.13;;
72649;SDS011;61467;50.674;4.618;2023-02-28T02:53:40;8.40;;;5.03;;
72649;SDS011;61467;50.674;4.618;2023-02-28T02:56:10;9.10;;;4.97;;
72649;SDS011;61467;50.674;4.618;2023-02-28T02:58:40;8.10;;;4.75;;
72649;SDS011;61467;50.674;4.618;2023-02-28T03:01:10;12.25;;;5.55;;
72649;SDS011;61467;50.674;4.618;2023-02-28T03:03:40;9.73;;;5.35;;
72649;SDS011;61467;50.674;4.618;2023-02-28T03:06:09;9.70;;;4.57;;
72649;SDS011;61467;50.674;4.618;2023-02-28T03:08:37;11.27;;;4.93;;
72649;SDS011;61467;50.674;4.618;2023-02-28T03:11:05;10.90;;;5.40;;
72649;SDS011;61467;50.674;4.618;2023-02-28T03:13:40;11.65;;;5.68;;
72649;SDS011;61467;50.674;4.618;2023-02-28T03:22:02;10.18;;;5.30;;
72649;SDS011;61467;50.674;4.618;2023-02-28T03:24:56;13.52;;;5.70;;
72649;SDS011;61467;50.674;4.618;2023-02-28T03:27:34;11.13;;;5.20;;
72649;SDS011;61467;50.674;4.618;2023-02-28T03:30:09;11.43;;;5.68;;
72649;SDS011;61467;50.674;4.618;2023-02-28T03:32:38;9.77;;;5.20;;
72649;SDS011;61467;50.674;4.618;2023-02-28T03:35:11;11.95;;;5.18;;
72649;SDS011;61467;50.674;4.618;2023-02-28T03:37:49;9.23;;;5.40;;
72649;SDS011;61467;50.674;4.618;2023-02-28T03:40:20;11.77;;;5.32;;
72649;SDS011;61467;50.674;4.618;2023-02-28T03:42:50;9.88;;;5.50;;
72649;SDS011;61467;50.674;4.618;2023-02-28T03:45:21;9.67;;;5.10;;
72649;SDS011;61467;50.674;4.618;2023-02-28T03:47:52;9.52;;;4.88;;
72649;SDS011;61467;50.674;4.618;2023-02-28T03:50:23;11.07;;;5.65;;
72649;SDS011;61467;50.674;4.618;2023-02-28T03:52:55;11.05;;;5.75;;
72649;SDS011;61467;50.674;4.618;2023-02-28T03:55:30;12.38;;;6.25;;
72649;SDS011;61467;50.674;4.618;2023-02-28T03:58:01;12.13;;;5.50;;
72649;SDS011;61467;50.674;4.618;2023-02-28T04:00:33;12.38;;;5.20;;
72649;SDS011;61467;50.674;4.618;2023-02-28T04:03:03;8.68;;;4.90;;
72649;SDS011;61467;50.674;4.618;2023-02-28T04:05:30;11.70;;;5.05;;
72649;SDS011;61467;50.674;4.618;2023-02-28T04:08:04;10.75;;;5.10;;
72649;SDS011;61467;50.674;4.618;2023-02-28T04:10:32;11.13;;;5.07;;
72649;SDS011;61467;50.674;4.618;2023-02-28T04:12:59;9.38;;;5.53;;
72649;SDS011;61467;50.674;4.618;2023-02-28T04:15:26;8.77;;;4.50;;
72649;SDS011;61467;50.674;4.618;2023-02-28T04:17:53;8.75;;;5.25;;
72649;SDS011;61467;50.674;4.618;2023-02-28T04:20:20;10.65;;;5.55;;
72649;SDS011;61467;50.674;4.618;2023-02-28T04:22:46;8.67;;;4.40;;
72649;SDS011;61467;50.674;4.618;2023-02-28T04:25:15;10.18;;;4.65;;
72649;SDS011;61467;50.674;4.618;2023-02-28T04:27:41;9.68;;;5.43;;
72649;SDS011;61467;50.674;4.618;2023-02-28T04:30:10;9.52;;;4.90;;
72649;SDS011;61467;50.674;4.618;2023-02-28T04:32:37;10.95;;;5.88;;
72649;SDS011;61467;50.674;4.618;2023-02-28T04:35:04;9.03;;;4.37;;
72649;SDS011;61467;50.674;4.618;2023-02-28T04:37:32;9.15;;;5.22;;
72649;SDS011;61467;50.674;4.618;2023-02-28T04:39:59;11.63;;;6.00;;
72649;SDS011;61467;50.674;4.618;2023-02-28T04:42:29;9.70;;;5.00;;
72649;SDS011;61467;50.674;4.618;2023-02-28T04:45:00;10.70;;;5.63;;
72649;SDS011;61467;50.674;4.618;2023-02-28T04:47:28;10.40;;;5.03;;
72649;SDS011;61467;50.674;4.618;2023-02-28T04:49:55;10.23;;;5.63;;
72649;SDS011;61467;50.674;4.618;2023-02-28T04:52:22;10.13;;;5.93;;
72649;SDS011;61467;50.674;4.618;2023-02-28T04:54:49;10.73;;;5.50;;
72649;SDS011;61467;50.674;4.618;2023-02-28T04:57:15;9.73;;;5.47;;
72649;SDS011;61467;50.674;4.618;2023-02-28T04:59:44;11.47;;;5.97;;
72649;SDS011;61467;50.674;4.618;2023-02-28T05:02:11;10.73;;;5.88;;
72649;SDS011;61467;50.674;4.618;2023-02-28T05:04:38;12.18;;;5.88;;
72649;SDS011;61467;50.674;4.618;2023-02-28T05:07:04;12.82;;;6.70;;
72649;SDS011;61467;50.674;4.618;2023-02-28T05:09:31;11.07;;;5.78;;
72649;SDS011;61467;50.674;4.618;2023-02-28T05:11:59;11.87;;;5.73;;
72649;SDS011;61467;50.674;4.618;2023-02-28T05:14:26;10.32;;;5.38;;
72649;SDS011;61467;50.674;4.618;2023-02-28T05:16:54;12.93;;;5.72;;
72649;SDS011;61467;50.674;4.618;2023-02-28T05:19:21;14.32;;;5.90;;
72649;SDS011;61467;50.674;4.618;2023-02-28T05:21:49;12.38;;;6.47;;
72649;SDS011;61467;50.674;4.618;2023-02-28T05:24:17;10.87;;;5.10;;
72649;SDS011;61467;50.674;4.618;2023-02-28T05:26:48;12.45;;;5.60;;
72649;SDS011;61467;50.674;4.618;2023-02-28T05:29:16;11.50;;;6.28;;
72649;SDS011;61467;50.674;4.618;2023-02-28T05:31:43;10.95;;;6.18;;
72649;SDS011;61467;50.674;4.618;2023-02-28T05:34:11;11.00;;;6.80;;
72649;SDS011;61467;50.674;4.618;2023-02-28T05:36:38;10.10;;;6.13;;
72649;SDS011;61467;50.674;4.618;2023-02-28T05:39:05;11.07;;;5.90;;
72649;SDS011;61467;50.674;4.618;2023-02-28T05:41:37;12.98;;;6.85;;
72649;SDS011;61467;50.674;4.618;2023-02-28T05:44:05;12.20;;;6.32;;
72649;SDS011;61467;50.674;4.618;2023-02-28T05:46:32;12.57;;;6.30;;
72649;SDS011;61467;50.674;4.618;2023-02-28T05:48:59;11.73;;;5.70;;
72649;SDS011;61467;50.674;4.618;2023-02-28T05:51:27;10.77;;;6.43;;
72649;SDS011;61467;50.674;4.618;2023-02-28T05:53:54;13.35;;;6.35;;
72649;SDS011;61467;50.674;4.618;2023-02-28T05:56:22;11.85;;;6.78;;
72649;SDS011;61467;50.674;4.618;2023-02-28T05:58:48;11.50;;;6.35;;
72649;SDS011;61467;50.674;4.618;2023-02-28T06:01:22;12.27;;;6.27;;
72649;SDS011;61467;50.674;4.618;2023-02-28T06:03:52;12.85;;;6.28;;
72649;SDS011;61467;50.674;4.618;2023-02-28T06:06:19;14.50;;;6.57;;
72649;SDS011;61467;50.674;4.618;2023-02-28T06:08:47;11.25;;;6.47;;
72649;SDS011;61467;50.674;4.618;2023-02-28T06:11:14;13.13;;;6.63;;
72649;SDS011;61467;50.674;4.618;2023-02-28T06:13:41;13.50;;;7.07;;
72649;SDS011;61467;50.674;4.618;2023-02-28T06:16:08;13.93;;;7.75;;
72649;SDS011;61467;50.674;4.618;2023-02-28T06:18:36;11.77;;;7.00;;
72649;SDS011;61467;50.674;4.618;2023-02-28T06:21:03;13.00;;;6.85;;
72649;SDS011;61467;50.674;4.618;2023-02-28T06:23:30;12.50;;;7.28;;
72649;SDS011;61467;50.674;4.618;2023-02-28T06:25:59;10.83;;;6.70;;
72649;SDS011;61467;50.674;4.618;2023-02-28T06:28:25;12.60;;;7.50;;
72649;SDS011;61467;50.674;4.618;2023-02-28T06:30:52;14.23;;;7.47;;
72649;SDS011;61467;50.674;4.618;2023-02-28T06:33:19;15.25;;;7.25;;
72649;SDS011;61467;50.674;4.618;2023-02-28T06:35:46;14.25;;;7.35;;
72649;SDS011;61467;50.674;4.618;2023-02-28T06:38:13;13.23;;;7.47;;
72649;SDS011;61467;50.674;4.618;2023-02-28T06:40:40;12.75;;;7.25;;
72649;SDS011;61467;50.674;4.618;2023-02-28T06:43:09;13.35;;;7.63;;
72649;SDS011;61467;50.674;4.618;2023-02-28T06:45:41;12.68;;;7.35;;
72649;SDS011;61467;50.674;4.618;2023-02-28T06:48:08;11.20;;;6.78;;
72649;SDS011;61467;50.674;4.618;2023-02-28T06:50:36;13.50;;;7.33;;
72649;SDS011;61467;50.674;4.618;2023-02-28T06:53:03;12.80;;;7.15;;
72649;SDS011;61467;50.674;4.618;2023-02-28T06:55:30;14.48;;;7.38;;
72649;SDS011;61467;50.674;4.618;2023-02-28T06:57:57;14.60;;;7.50;;
72649;SDS011;61467;50.674;4.618;2023-02-28T07:00:25;12.77;;;7.53;;
72649;SDS011;61467;50.674;4.618;2023-02-28T07:02:52;14.63;;;8.00;;
72649;SDS011;61467;50.674;4.618;2023-02-28T07:05:20;17.67;;;7.65;;
72649;SDS011;61467;50.674;4.618;2023-02-28T07:07:48;14.55;;;7.75;;
72649;SDS011;61467;50.674;4.618;2023-02-28T07:10:17;13.88;;;7.90;;
72649;SDS011;61467;50.674;4.618;2023-02-28T07:12:45;13.60;;;7.57;;
72649;SDS011;61467;50.674;4.618;2023-02-28T07:15:11;13.77;;;7.70;;
72649;SDS011;61467;50.674;4.618;2023-02-28T07:17:40;11.30;;;7.50;;
72649;SDS011;61467;50.674;4.618;2023-02-28T07:20:07;10.98;;;6.90;;
72649;SDS011;61467;50.674;4.618;2023-02-28T07:22:34;13.18;;;7.65;;
72649;SDS011;61467;50.674;4.618;2023-02-28T07:25:01;13.00;;;6.75;;
72649;SDS011;61467;50.674;4.618;2023-02-28T07:27:29;12.53;;;7.00;;
72649;SDS011;61467;50.674;4.618;2023-02-28T07:29:56;13.20;;;7.43;;
72649;SDS011;61467;50.674;4.618;2023-02-28T07:32:26;11.35;;;7.35;;
72649;SDS011;61467;50.674;4.618;2023-02-28T07:34:54;13.55;;;7.32;;
72649;SDS011;61467;50.674;4.618;2023-02-28T07:37:21;11.02;;;6.43;;
72649;SDS011;61467;50.674;4.618;2023-02-28T07:39:48;12.47;;;6.50;;
72649;SDS011;61467;50.674;4.618;2023-02-28T07:42:16;13.57;;;7.30;;
72649;SDS011;61467;50.674;4.618;2023-02-28T07:44:43;12.88;;;6.93;;
72649;SDS011;61467;50.674;4.618;2023-02-28T07:47:10;12.27;;;6.15;;
72649;SDS011;61467;50.674;4.618;2023-02-28T07:49:36;14.75;;;6.72;;
72649;SDS011;61467;50.674;4.618;2023-02-28T07:52:05;11.50;;;6.53;;
72649;SDS011;61467;50.674;4.618;2023-02-28T07:54:33;14.02;;;6.57;;
72649;SDS011;61467;50.674;4.618;2023-02-28T07:57:00;14.38;;;7.38;;
72649;SDS011;61467;50.674;4.618;2023-02-28T07:59:27;11.95;;;7.43;;
72649;SDS011;61467;50.674;4.618;2023-02-28T08:01:54;12.88;;;6.68;;
72649;SDS011;61467;50.674;4.618;2023-02-28T08:04:23;12.60;;;6.90;;
72649;SDS011;61467;50.674;4.618;2023-02-28T08:06:50;13.00;;;7.57;;
72649;SDS011;61467;50.674;4.618;2023-02-28T08:09:19;14.68;;;6.97;;
72649;SDS011;61467;50.674;4.618;2023-02-28T08:11:48;12.55;;;6.55;;
72649;SDS011;61467;50.674;4.618;2023-02-28T08:14:14;13.93;;;7.75;;
72649;SDS011;61467;50.674;4.618;2023-02-28T08:16:41;12.83;;;6.90;;
72649;SDS011;61467;50.674;4.618;2023-02-28T08:19:08;11.65;;;6.00;;
72649;SDS011;61467;50.674;4.618;2023-02-28T08:21:36;11.23;;;6.55;;
72649;SDS011;61467;50.674;4.618;2023-02-28T08:24:05;10.35;;;5.20;;
72649;SDS011;61467;50.674;4.618;2023-02-28T08:26:34;10.90;;;6.03;;
72649;SDS011;61467;50.674;4.618;2023-02-28T08:29:00;11.53;;;5.53;;
72649;SDS011;61467;50.674;4.618;2023-02-28T08:31:27;13.85;;;6.40;;
72649;SDS011;61467;50.674;4.618;2023-02-28T08:33:54;10.82;;;6.30;;
72649;SDS011;61467;50.674;4.618;2023-02-28T08:36:24;14.38;;;5.82;;
72649;SDS011;61467;50.674;4.618;2023-02-28T08:38:51;10.82;;;5.78;;
72649;SDS011;61467;50.674;4.618;2023-02-28T08:41:18;9.43;;;5.67;;
72649;SDS011;61467;50.674;4.618;2023-02-28T08:43:46;12.07;;;5.97;;
72649;SDS011;61467;50.674;4.618;2023-02-28T08:46:13;11.32;;;5.88;;
72649;SDS011;61467;50.674;4.618;2023-02-28T08:48:40;15.05;;;5.28;;
72649;SDS011;61467;50.674;4.618;2023-02-28T08:51:08;11.55;;;5.88;;
72649;SDS011;61467;50.674;4.618;2023-02-28T08:53:37;13.33;;;5.60;;
72649;SDS011;61467;50.674;4.618;2023-02-28T08:56:05;9.68;;;4.88;;
72649;SDS011;61467;50.674;4.618;2023-02-28T08:58:33;10.60;;;5.28;;
72649;SDS011;61467;50.674;4.618;2023-02-28T09:01:06;9.65;;;5.32;;
72649;SDS011;61467;50.674;4.618;2023-02-28T09:03:34;10.80;;;5.03;;
72649;SDS011;61467;50.674;4.618;2023-02-28T09:06:01;9.77;;;4.83;;
72649;SDS011;61467;50.674;4.618;2023-02-28T09:08:29;9.73;;;4.90;;
72649;SDS011;61467;50.674;4.618;2023-02-28T09:10:56;10.10;;;4.88;;
72649;SDS011;61467;50.674;4.618;2023-02-28T09:13:24;8.82;;;4.60;;
72649;SDS011;61467;50.674;4.618;2023-02-28T09:15:51;9.73;;;4.57;;
72649;SDS011;61467;50.674;4.618;2023-02-28T09:18:20;10.00;;;4.30;;
72649;SDS011;61467;50.674;4.618;2023-02-28T09:20:47;7.28;;;3.67;;
72649;SDS011;61467;50.674;4.618;2023-02-28T09:23:14;9.18;;;4.88;;
72649;SDS011;61467;50.674;4.618;2023-02-28T09:25:44;7.68;;;3.78;;
72649;SDS011;61467;50.674;4.618;2023-02-28T09:28:12;9.45;;;4.25;;
72649;SDS011;61467;50.674;4.618;2023-02-28T09:30:40;8.23;;;4.23;;
72649;SDS011;61467;50.674;4.618;2023-02-28T09:33:07;8.60;;;4.20;;
72649;SDS011;61467;50.674;4.618;2023-02-28T09:35:35;7.57;;;3.90;;
72649;SDS011;61467;50.674;4.618;2023-02-28T09:38:03;8.98;;;4.47;;
72649;SDS011;61467;50.674;4.618;2023-02-28T09:40:34;11.20;;;4.43;;
72649;SDS011;61467;50.674;4.618;2023-02-28T09:43:03;8.83;;;4.20;;
72649;SDS011;61467;50.674;4.618;2023-02-28T09:45:32;9.02;;;4.45;;
72649;SDS011;61467;50.674;4.618;2023-02-28T09:48:02;11.23;;;4.57;;
72649;SDS011;61467;50.674;4.618;2023-02-28T09:50:37;7.43;;;4.00;;
72649;SDS011;61467;50.674;4.618;2023-02-28T09:53:10;9.82;;;4.30;;
72649;SDS011;61467;50.674;4.618;2023-02-28T09:55:44;9.20;;;3.97;;
72649;SDS011;61467;50.674;4.618;2023-02-28T09:58:16;9.05;;;4.45;;
72649;SDS011;61467;50.674;4.618;2023-02-28T10:00:47;8.98;;;3.72;;
72649;SDS011;61467;50.674;4.618;2023-02-28T10:03:25;9.00;;;3.88;;
72649;SDS011;61467;50.674;4.618;2023-02-28T10:05:59;7.35;;;3.28;;
72649;SDS011;61467;50.674;4.618;2023-02-28T10:08:32;9.17;;;3.37;;
72649;SDS011;61467;50.674;4.618;2023-02-28T10:11:08;6.85;;;3.58;;
72649;SDS011;61467;50.674;4.618;2023-02-28T10:13:39;10.95;;;4.28;;
72649;SDS011;61467;50.674;4.618;2023-02-28T10:16:20;6.05;;;3.00;;
72649;SDS011;61467;50.674;4.618;2023-02-28T10:18:51;6.00;;;3.00;;
72649;SDS011;61467;50.674;4.618;2023-02-28T10:21:23;6.37;;;3.03;;
72649;SDS011;61467;50.674;4.618;2023-02-28T10:23:57;10.52;;;3.30;;
72649;SDS011;61467;50.674;4.618;2023-02-28T10:26:29;7.68;;;2.88;;
72649;SDS011;61467;50.674;4.618;2023-02-28T10:28:59;11.02;;;3.42;;
72649;SDS011;61467;50.674;4.618;2023-02-28T10:31:27;13.77;;;3.83;;
72649;SDS011;61467;50.674;4.618;2023-02-28T10:33:54;14.57;;;4.17;;
72649;SDS011;61467;50.674;4.618;2023-02-28T10:36:23;17.40;;;4.38;;
72649;SDS011;61467;50.674;4.618;2023-02-28T10:38:50;7.20;;;3.50;;
72649;SDS011;61467;50.674;4.618;2023-02-28T10:41:25;6.60;;;3.00;;
72649;SDS011;61467;50.674;4.618;2023-02-28T10:44:12;6.47;;;3.25;;
72649;SDS011;61467;50.674;4.618;2023-02-28T10:46:43;10.37;;;3.17;;
72649;SDS011;61467;50.674;4.618;2023-02-28T10:49:14;9.25;;;3.47;;
72649;SDS011;61467;50.674;4.618;2023-02-28T10:51:44;9.75;;;4.35;;
72649;SDS011;61467;50.674;4.618;2023-02-28T10:54:16;8.55;;;3.92;;
72649;SDS011;61467;50.674;4.618;2023-02-28T10:56:44;7.65;;;3.63;;
72649;SDS011;61467;50.674;4.618;2023-02-28T10:59:26;8.23;;;3.40;;
72649;SDS011;61467;50.674;4.618;2023-02-28T11:01:54;7.25;;;3.70;;
72649;SDS011;61467;50.674;4.618;2023-02-28T11:04:32;8.10;;;3.97;;
72649;SDS011;61467;50.674;4.618;2023-02-28T11:07:05;7.93;;;3.72;;
72649;SDS011;61467;50.674;4.618;2023-02-28T11:09:33;25.95;;;5.78;;
72649;SDS011;61467;50.674;4.618;2023-02-28T11:12:04;9.97;;;3.17;;
72649;SDS011;61467;50.674;4.618;2023-02-28T11:14:35;7.55;;;2.70;;
72649;SDS011;61467;50.674;4.618;2023-02-28T11:17:13;9.13;;;3.80;;
72649;SDS011;61467;50.674;4.618;2023-02-28T11:19:45;7.45;;;2.85;;
72649;SDS011;61467;50.674;4.618;2023-02-28T11:22:19;6.55;;;3.10;;
72649;SDS011;61467;50.674;4.618;2023-02-28T11:24:50;9.33;;;2.83;;
72649;SDS011;61467;50.674;4.618;2023-02-28T11:30:29;8.00;;;2.72;;
72649;SDS011;61467;50.674;4.618;2023-02-28T11:32:58;11.95;;;2.58;;
72649;SDS011;61467;50.674;4.618;2023-02-28T11:35:26;7.55;;;2.80;;
72649;SDS011;61467;50.674;4.618;2023-02-28T11:37:58;5.63;;;2.57;;
72649;SDS011;61467;50.674;4.618;2023-02-28T11:40:30;8.60;;;2.67;;
72649;SDS011;61467;50.674;4.618;2023-02-28T11:43:07;7.90;;;2.80;;
72649;SDS011;61467;50.674;4.618;2023-02-28T11:45:44;7.15;;;3.08;;
72649;SDS011;61467;50.674;4.618;2023-02-28T11:48:20;7.43;;;3.00;;
72649;SDS011;61467;50.674;4.618;2023-02-28T11:50:52;8.90;;;2.67;;
72649;SDS011;61467;50.674;4.618;2023-02-28T11:53:35;6.72;;;2.80;;
72649;SDS011;61467;50.674;4.618;2023-02-28T11:56:18;7.70;;;2.78;;
72649;SDS011;61467;50.674;4.618;2023-02-28T11:58:53;5.28;;;1.70;;
72649;SDS011;61467;50.674;4.618;2023-02-28T12:01:30;6.55;;;3.10;;
72649;SDS011;61467;50.674;4.618;2023-02-28T12:04:11;7.60;;;3.13;;
72649;SDS011;61467;50.674;4.618;2023-02-28T12:06:45;6.40;;;2.90;;
72649;SDS011;61467;50.674;4.618;2023-02-28T12:09:28;5.95;;;2.50;;
72649;SDS011;61467;50.674;4.618;2023-02-28T12:12:07;7.50;;;3.20;;
72649;SDS011;61467;50.674;4.618;2023-02-28T12:14:49;6.82;;;2.67;;
72649;SDS011;61467;50.674;4.618;2023-02-28T12:17:29;6.70;;;2.70;;
72649;SDS011;61467;50.674;4.618;2023-02-28T12:20:06;6.03;;;3.40;;
72649;SDS011;61467;50.674;4.618;2023-02-28T12:22:42;7.13;;;3.10;;
72649;SDS011;61467;50.674;4.618;2023-02-28T12:25:35;13.93;;;3.42;;
72649;SDS011;61467;50.674;4.618;2023-02-28T12:28:24;6.45;;;3.30;;
72649;SDS011;61467;50.674;4.618;2023-02-28T12:30:56;6.23;;;3.03;;
72649;SDS011;61467;50.674;4.618;2023-02-28T12:33:28;7.15;;;2.75;;
72649;SDS011;61467;50.674;4.618;2023-02-28T12:36:00;7.53;;;3.60;;
72649;SDS011;61467;50.674;4.618;2023-02-28T12:38:34;6.25;;;3.10;;
72649;SDS011;61467;50.674;4.618;2023-02-28T12:41:08;7.97;;;3.30;;
72649;SDS011;61467;50.674;4.618;2023-02-28T12:43:40;6.57;;;2.83;;
72649;SDS011;61467;50.674;4.618;2023-02-28T12:46:11;7.43;;;3.33;;
72649;SDS011;61467;50.674;4.618;2023-02-28T12:48:43;5.43;;;2.65;;
72649;SDS011;61467;50.674;4.618;2023-02-28T12:51:13;5.90;;;2.92;;
72649;SDS011;61467;50.674;4.618;2023-02-28T12:53:48;6.93;;;3.33;;
72649;SDS011;61467;50.674;4.618;2023-02-28T12:56:26;6.10;;;3.07;;
72649;SDS011;61467;50.674;4.618;2023-02-28T12:59:01;10.38;;;3.58;;
72649;SDS011;61467;50.674;4.618;2023-02-28T13:01:46;7.53;;;2.92;;
72649;SDS011;61467;50.674;4.618;2023-02-28T13:04:44;6.03;;;3.00;;
72649;SDS011;61467;50.674;4.618;2023-02-28T13:07:29;6.68;;;3.45;;
72649;SDS011;61467;50.674;4.618;2023-02-28T13:10:06;5.83;;;2.77;;
72649;SDS011;61467;50.674;4.618;2023-02-28T13:12:35;10.70;;;3.00;;
72649;SDS011;61467;50.674;4.618;2023-02-28T13:15:04;7.47;;;3.60;;
72649;SDS011;61467;50.674;4.618;2023-02-28T13:17:38;7.13;;;3.00;;
72649;SDS011;61467;50.674;4.618;2023-02-28T13:20:14;8.13;;;3.28;;
72649;SDS011;61467;50.674;4.618;2023-02-28T13:22:43;8.67;;;2.97;;
72649;SDS011;61467;50.674;4.618;2023-02-28T13:35:14;6.78;;;3.17;;
72649;SDS011;61467;50.674;4.618;2023-02-28T13:38:09;6.53;;;2.25;;
72649;SDS011;61467;50.674;4.618;2023-02-28T13:40:43;8.65;;;2.80;;
72649;SDS011;61467;50.674;4.618;2023-02-28T13:43:10;5.87;;;2.70;;
72649;SDS011;61467;50.674;4.618;2023-02-28T13:45:37;6.38;;;2.40;;
72649;SDS011;61467;50.674;4.618;2023-02-28T13:48:14;6.45;;;2.70;;
72649;SDS011;61467;50.674;4.618;2023-02-28T13:50:45;7.00;;;2.53;;
72649;SDS011;61467;50.674;4.618;2023-02-28T13:53:28;6.63;;;2.38;;
72649;SDS011;61467;50.674;4.618;2023-02-28T13:56:20;6.07;;;2.57;;
72649;SDS011;61467;50.674;4.618;2023-02-28T13:58:54;6.85;;;2.53;;
72649;SDS011;61467;50.674;4.618;2023-02-28T14:01:43;6.65;;;3.03;;
72649;SDS011;61467;50.674;4.618;2023-02-28T14:04:38;5.28;;;2.28;;
72649;SDS011;61467;50.674;4.618;2023-02-28T14:07:19;7.57;;;2.75;;
72649;SDS011;61467;50.674;4.618;2023-02-28T14:09:51;6.90;;;2.70;;
72649;SDS011;61467;50.674;4.618;2023-02-28T14:15:39;6.53;;;2.50;;
72649;SDS011;61467;50.674;4.618;2023-02-28T14:18:22;7.00;;;2.60;;
72649;SDS011;61467;50.674;4.618;2023-02-28T14:20:52;5.90;;;2.58;;
72649;SDS011;61467;50.674;4.618;2023-02-28T14:23:31;7.67;;;3.17;;
72649;SDS011;61467;50.674;4.618;2023-02-28T14:26:29;6.22;;;2.58;;
72649;SDS011;61467;50.674;4.618;2023-02-28T14:29:09;7.10;;;3.30;;
72649;SDS011;61467;50.674;4.618;2023-02-28T14:31:47;7.05;;;2.53;;
72649;SDS011;61467;50.674;4.618;2023-02-28T14:37:09;8.27;;;2.70;;
72649;SDS011;61467;50.674;4.618;2023-02-28T14:39:42;8.98;;;3.10;;
72649;SDS011;61467;50.674;4.618;2023-02-28T14:42:30;7.53;;;3.10;;
72649;SDS011;61467;50.674;4.618;2023-02-28T14:44:58;6.60;;;3.00;;
72649;SDS011;61467;50.674;4.618;2023-02-28T14:47:26;7.88;;;3.00;;
72649;SDS011;61467;50.674;4.618;2023-02-28T14:49:56;6.47;;;3.00;;
72649;SDS011;61467;50.674;4.618;2023-02-28T14:52:24;8.85;;;3.10;;
72649;SDS011;61467;50.674;4.618;2023-02-28T14:54:55;6.85;;;3.10;;
72649;SDS011;61467;50.674;4.618;2023-02-28T14:57:24;9.75;;;3.08;;
72649;SDS011;61467;50.674;4.618;2023-02-28T14:59:59;6.53;;;3.33;;
72649;SDS011;61467;50.674;4.618;2023-02-28T15:02:35;7.43;;;2.90;;
72649;SDS011;61467;50.674;4.618;2023-02-28T15:05:10;7.40;;;2.92;;
72649;SDS011;61467;50.674;4.618;2023-02-28T15:07:48;6.50;;;2.95;;
72649;SDS011;61467;50.674;4.618;2023-02-28T15:10:27;6.70;;;3.05;;
72649;SDS011;61467;50.674;4.618;2023-02-28T15:12:56;7.97;;;3.17;;
72649;SDS011;61467;50.674;4.618;2023-02-28T15:15:24;10.20;;;3.30;;
72649;SDS011;61467;50.674;4.618;2023-02-28T15:18:02;6.55;;;3.08;;
72649;SDS011;61467;50.674;4.618;2023-02-28T15:20:32;7.35;;;3.40;;
72649;SDS011;61467;50.674;4.618;2023-02-28T15:23:01;7.43;;;3.38;;
72649;SDS011;61467;50.674;4.618;2023-02-28T15:25:29;6.82;;;3.60;;
72649;SDS011;61467;50.674;4.618;2023-02-28T15:27:57;6.23;;;3.30;;
72649;SDS011;61467;50.674;4.618;2023-02-28T15:30:25;7.60;;;3.25;;
72649;SDS011;61467;50.674;4.618;2023-02-28T15:33:07;8.30;;;3.38;;
72649;SDS011;61467;50.674;4.618;2023-02-28T15:35:46;10.50;;;3.40;;
72649;SDS011;61467;50.674;4.618;2023-02-28T15:38:15;8.93;;;3.35;;
72649;SDS011;61467;50.674;4.618;2023-02-28T15:40:46;9.97;;;3.20;;